sensor_id;sensor_type;location;lat;lon;timestamp;P1;durP1;ratioP1;P2;durP2;ratioP2
35128;SDS011;21301;43.626;10.580;2023-06-19T00:00:54;11.35;;;8.90;;
35128;SDS011;21301;43.626;10.580;2023-06-19T00:03:19;14.93;;;8.10;;
35128;SDS011;21301;43.626;10.580;2023-06-19T00:05:45;16.90;;;9.15;;
35128;SDS011;21301;43.626;10.580;2023-06-19T00:08:11;13.68;;;7.35;;
35128;SDS011;21301;43.626;10.580;2023-06-19T00:10:37;12.05;;;7.30;;
35128;SDS011;21301;43.626;10.580;2023-06-19T00:13:02;12.05;;;8.35;;
35128;SDS011;21301;43.626;10.580;2023-06-19T00:15:28;11.43;;;6.88;;
35128;SDS011;21301;43.626;10.580;2023-06-19T00:17:55;10.48;;;6.97;;
35128;SDS011;21301;43.626;10.580;2023-06-19T00:20:22;19.10;;;7.13;;
35128;SDS011;21301;43.626;10.580;2023-06-19T00:22:48;10.57;;;6.90;;
35128;SDS011;21301;43.626;10.580;2023-06-19T00:25:17;10.75;;;6.72;;
35128;SDS011;21301;43.626;10.580;2023-06-19T00:27:44;14.25;;;7.10;;
35128;SDS011;21301;43.626;10.580;2023-06-19T00:30:11;10.73;;;6.93;;
35128;SDS011;21301;43.626;10.580;2023-06-19T00:32:37;10.23;;;7.22;;
35128;SDS011;21301;43.626;10.580;2023-06-19T00:35:12;13.25;;;7.05;;
35128;SDS011;21301;43.626;10.580;2023-06-19T00:37:39;12.25;;;7.28;;
35128;SDS011;21301;43.626;10.580;2023-06-19T00:40:10;10.05;;;6.53;;
35128;SDS011;21301;43.626;10.580;2023-06-19T00:42:57;11.10;;;7.65;;
35128;SDS011;21301;43.626;10.580;2023-06-19T00:45:24;12.82;;;7.32;;
35128;SDS011;21301;43.626;10.580;2023-06-19T00:47:54;10.52;;;6.90;;
35128;SDS011;21301;43.626;10.580;2023-06-19T00:50:21;13.90;;;7.72;;
35128;SDS011;21301;43.626;10.580;2023-06-19T00:52:47;11.80;;;7.03;;
35128;SDS011;21301;43.626;10.580;2023-06-19T00:55:15;13.57;;;7.40;;
35128;SDS011;21301;43.626;10.580;2023-06-19T00:57:42;11.02;;;7.35;;
35128;SDS011;21301;43.626;10.580;2023-06-19T01:00:08;13.00;;;8.07;;
35128;SDS011;21301;43.626;10.580;2023-06-19T01:02:38;12.10;;;7.50;;
35128;SDS011;21301;43.626;10.580;2023-06-19T01:05:04;10.70;;;6.22;;
35128;SDS011;21301;43.626;10.580;2023-06-19T01:07:47;13.75;;;6.72;;
35128;SDS011;21301;43.626;10.580;2023-06-19T01:10:16;12.57;;;6.65;;
35128;SDS011;21301;43.626;10.580;2023-06-19T01:12:49;9.45;;;7.00;;
35128;SDS011;21301;43.626;10.580;2023-06-19T01:15:22;8.95;;;6.30;;
35128;SDS011;21301;43.626;10.580;2023-06-19T01:17:49;9.57;;;6.55;;
35128;SDS011;21301;43.626;10.580;2023-06-19T01:20:15;13.60;;;7.25;;
35128;SDS011;21301;43.626;10.580;2023-06-19T01:22:41;10.05;;;6.28;;
35128;SDS011;21301;43.626;10.580;2023-06-19T01:25:10;8.82;;;6.38;;
35128;SDS011;21301;43.626;10.580;2023-06-19T01:27:39;12.05;;;6.70;;
35128;SDS011;21301;43.626;10.580;2023-06-19T01:30:06;12.35;;;7.00;;
35128;SDS011;21301;43.626;10.580;2023-06-19T01:35:21;11.30;;;6.53;;
35128;SDS011;21301;43.626;10.580;2023-06-19T01:37:52;11.85;;;7.47;;
35128;SDS011;21301;43.626;10.580;2023-06-19T01:40:18;15.77;;;6.88;;
35128;SDS011;21301;43.626;10.580;2023-06-19T01:42:49;10.70;;;7.15;;
35128;SDS011;21301;43.626;10.580;2023-06-19T01:45:19;11.30;;;6.57;;
35128;SDS011;21301;43.626;10.580;2023-06-19T01:47:46;12.27;;;7.60;;
35128;SDS011;21301;43.626;10.580;2023-06-19T01:50:11;9.50;;;5.57;;
35128;SDS011;21301;43.626;10.580;2023-06-19T01:52:38;10.45;;;5.95;;
35128;SDS011;21301;43.626;10.580;2023-06-19T01:55:04;9.45;;;5.55;;
35128;SDS011;21301;43.626;10.580;2023-06-19T01:57:31;9.60;;;5.85;;
35128;SDS011;21301;43.626;10.580;2023-06-19T01:59:57;7.43;;;5.57;;
35128;SDS011;21301;43.626;10.580;2023-06-19T02:02:23;9.25;;;5.57;;
35128;SDS011;21301;43.626;10.580;2023-06-19T02:04:49;8.52;;;6.15;;
35128;SDS011;21301;43.626;10.580;2023-06-19T02:07:15;8.88;;;5.80;;
35128;SDS011;21301;43.626;10.580;2023-06-19T02:09:40;7.15;;;5.15;;
35128;SDS011;21301;43.626;10.580;2023-06-19T02:12:06;7.90;;;5.93;;
35128;SDS011;21301;43.626;10.580;2023-06-19T02:14:33;7.45;;;5.63;;
35128;SDS011;21301;43.626;10.580;2023-06-19T02:16:59;12.65;;;6.28;;
35128;SDS011;21301;43.626;10.580;2023-06-19T02:19:25;10.80;;;6.07;;
35128;SDS011;21301;43.626;10.580;2023-06-19T02:21:51;9.63;;;5.88;;
35128;SDS011;21301;43.626;10.580;2023-06-19T02:24:17;9.65;;;5.75;;
35128;SDS011;21301;43.626;10.580;2023-06-19T02:26:43;14.00;;;5.93;;
35128;SDS011;21301;43.626;10.580;2023-06-19T02:29:09;9.68;;;6.22;;
35128;SDS011;21301;43.626;10.580;2023-06-19T02:31:35;14.80;;;6.65;;
35128;SDS011;21301;43.626;10.580;2023-06-19T02:34:01;10.48;;;6.05;;
35128;SDS011;21301;43.626;10.580;2023-06-19T02:36:26;15.52;;;6.65;;
35128;SDS011;21301;43.626;10.580;2023-06-19T02:38:52;14.27;;;7.53;;
35128;SDS011;21301;43.626;10.580;2023-06-19T02:41:20;15.50;;;6.35;;
35128;SDS011;21301;43.626;10.580;2023-06-19T02:43:46;10.13;;;6.40;;
35128;SDS011;21301;43.626;10.580;2023-06-19T02:46:12;9.35;;;6.93;;
35128;SDS011;21301;43.626;10.580;2023-06-19T02:48:38;13.88;;;6.55;;
35128;SDS011;21301;43.626;10.580;2023-06-19T02:51:03;19.17;;;7.22;;
35128;SDS011;21301;43.626;10.580;2023-06-19T02:53:29;11.88;;;7.30;;
35128;SDS011;21301;43.626;10.580;2023-06-19T02:55:55;10.65;;;6.30;;
35128;SDS011;21301;43.626;10.580;2023-06-19T02:58:21;11.32;;;6.95;;
35128;SDS011;21301;43.626;10.580;2023-06-19T03:00:47;10.48;;;6.40;;
35128;SDS011;21301;43.626;10.580;2023-06-19T03:03:15;11.13;;;7.00;;
35128;SDS011;21301;43.626;10.580;2023-06-19T03:05:41;10.98;;;6.25;;
35128;SDS011;21301;43.626;10.580;2023-06-19T03:08:06;8.85;;;6.60;;
35128;SDS011;21301;43.626;10.580;2023-06-19T03:10:32;9.20;;;5.93;;
35128;SDS011;21301;43.626;10.580;2023-06-19T03:12:58;11.52;;;6.28;;
35128;SDS011;21301;43.626;10.580;2023-06-19T03:15:27;10.25;;;6.38;;
35128;SDS011;21301;43.626;10.580;2023-06-19T03:17:53;13.30;;;6.25;;
35128;SDS011;21301;43.626;10.580;2023-06-19T03:20:20;10.38;;;5.88;;
35128;SDS011;21301;43.626;10.580;2023-06-19T03:22:52;11.48;;;7.28;;
35128;SDS011;21301;43.626;10.580;2023-06-19T03:25:19;13.77;;;6.28;;
35128;SDS011;21301;43.626;10.580;2023-06-19T03:27:46;12.70;;;7.00;;
35128;SDS011;21301;43.626;10.580;2023-06-19T03:30:12;9.65;;;6.63;;
35128;SDS011;21301;43.626;10.580;2023-06-19T03:32:40;11.57;;;7.00;;
35128;SDS011;21301;43.626;10.580;2023-06-19T03:35:09;14.75;;;7.47;;
35128;SDS011;21301;43.626;10.580;2023-06-19T03:37:41;13.40;;;6.95;;
35128;SDS011;21301;43.626;10.580;2023-06-19T03:40:07;13.27;;;6.63;;
35128;SDS011;21301;43.626;10.580;2023-06-19T03:42:40;10.98;;;6.32;;
35128;SDS011;21301;43.626;10.580;2023-06-19T03:45:06;9.35;;;5.95;;
35128;SDS011;21301;43.626;10.580;2023-06-19T03:47:33;11.73;;;6.65;;
35128;SDS011;21301;43.626;10.580;2023-06-19T03:49:59;10.57;;;8.05;;
35128;SDS011;21301;43.626;10.580;2023-06-19T03:52:25;10.63;;;6.10;;
35128;SDS011;21301;43.626;10.580;2023-06-19T03:54:50;10.73;;;6.00;;
35128;SDS011;21301;43.626;10.580;2023-06-19T03:57:18;10.57;;;7.03;;
35128;SDS011;21301;43.626;10.580;2023-06-19T03:59:43;12.65;;;6.57;;
35128;SDS011;21301;43.626;10.580;2023-06-19T04:02:09;10.68;;;6.95;;
35128;SDS011;21301;43.626;10.580;2023-06-19T04:04:35;11.82;;;5.93;;
35128;SDS011;21301;43.626;10.580;2023-06-19T04:07:01;10.85;;;6.32;;
35128;SDS011;21301;43.626;10.580;2023-06-19T04:09:26;8.70;;;6.00;;
35128;SDS011;21301;43.626;10.580;2023-06-19T04:11:52;9.68;;;5.80;;
35128;SDS011;21301;43.626;10.580;2023-06-19T04:14:18;12.90;;;6.85;;
35128;SDS011;21301;43.626;10.580;2023-06-19T04:16:44;11.63;;;6.03;;
35128;SDS011;21301;43.626;10.580;2023-06-19T04:19:10;14.50;;;7.15;;
35128;SDS011;21301;43.626;10.580;2023-06-19T04:21:36;11.00;;;6.47;;
35128;SDS011;21301;43.626;10.580;2023-06-19T04:24:04;9.35;;;6.53;;
35128;SDS011;21301;43.626;10.580;2023-06-19T04:26:34;11.57;;;6.53;;
35128;SDS011;21301;43.626;10.580;2023-06-19T04:29:02;10.90;;;6.38;;
35128;SDS011;21301;43.626;10.580;2023-06-19T04:31:28;8.98;;;6.53;;
35128;SDS011;21301;43.626;10.580;2023-06-19T04:33:55;14.68;;;6.20;;
35128;SDS011;21301;43.626;10.580;2023-06-19T04:36:22;10.45;;;5.80;;
35128;SDS011;21301;43.626;10.580;2023-06-19T04:38:48;13.60;;;6.78;;
35128;SDS011;21301;43.626;10.580;2023-06-19T04:41:16;11.57;;;6.60;;
35128;SDS011;21301;43.626;10.580;2023-06-19T04:43:42;10.38;;;5.80;;
35128;SDS011;21301;43.626;10.580;2023-06-19T04:46:08;11.77;;;6.20;;
35128;SDS011;21301;43.626;10.580;2023-06-19T04:48:34;13.63;;;7.47;;
35128;SDS011;21301;43.626;10.580;2023-06-19T04:51:02;14.02;;;7.47;;
35128;SDS011;21301;43.626;10.580;2023-06-19T04:53:28;11.30;;;6.40;;
35128;SDS011;21301;43.626;10.580;2023-06-19T04:55:54;8.55;;;6.18;;
35128;SDS011;21301;43.626;10.580;2023-06-19T04:58:20;11.20;;;6.63;;
35128;SDS011;21301;43.626;10.580;2023-06-19T05:00:47;11.50;;;7.32;;
35128;SDS011;21301;43.626;10.580;2023-06-19T05:03:19;10.57;;;6.72;;
35128;SDS011;21301;43.626;10.580;2023-06-19T05:05:46;11.18;;;6.90;;
35128;SDS011;21301;43.626;10.580;2023-06-19T05:08:12;13.02;;;7.10;;
35128;SDS011;21301;43.626;10.580;2023-06-19T05:10:38;12.30;;;7.30;;
35128;SDS011;21301;43.626;10.580;2023-06-19T05:13:04;15.38;;;7.32;;
35128;SDS011;21301;43.626;10.580;2023-06-19T05:15:30;10.82;;;7.32;;
35128;SDS011;21301;43.626;10.580;2023-06-19T05:17:56;13.32;;;7.95;;
35128;SDS011;21301;43.626;10.580;2023-06-19T05:20:21;14.07;;;8.07;;
35128;SDS011;21301;43.626;10.580;2023-06-19T05:22:47;13.65;;;9.15;;
35128;SDS011;21301;43.626;10.580;2023-06-19T05:25:13;13.63;;;8.85;;
35128;SDS011;21301;43.626;10.580;2023-06-19T05:27:38;11.23;;;7.95;;
35128;SDS011;21301;43.626;10.580;2023-06-19T05:30:05;16.70;;;9.10;;
35128;SDS011;21301;43.626;10.580;2023-06-19T05:32:31;17.45;;;11.20;;
35128;SDS011;21301;43.626;10.580;2023-06-19T05:34:57;13.77;;;10.07;;
35128;SDS011;21301;43.626;10.580;2023-06-19T05:37:24;14.60;;;10.07;;
35128;SDS011;21301;43.626;10.580;2023-06-19T05:39:51;12.85;;;10.10;;
35128;SDS011;21301;43.626;10.580;2023-06-19T05:42:17;16.00;;;10.13;;
35128;SDS011;21301;43.626;10.580;2023-06-19T05:44:43;15.85;;;10.70;;
35128;SDS011;21301;43.626;10.580;2023-06-19T05:47:09;13.32;;;9.52;;
35128;SDS011;21301;43.626;10.580;2023-06-19T05:49:34;16.67;;;10.25;;
35128;SDS011;21301;43.626;10.580;2023-06-19T05:52:00;14.20;;;9.32;;
35128;SDS011;21301;43.626;10.580;2023-06-19T05:54:26;13.48;;;9.90;;
35128;SDS011;21301;43.626;10.580;2023-06-19T05:56:52;13.10;;;9.52;;
35128;SDS011;21301;43.626;10.580;2023-06-19T05:59:18;14.23;;;8.30;;
35128;SDS011;21301;43.626;10.580;2023-06-19T06:01:44;14.93;;;7.88;;
35128;SDS011;21301;43.626;10.580;2023-06-19T06:04:09;11.77;;;9.07;;
35128;SDS011;21301;43.626;10.580;2023-06-19T06:06:35;13.07;;;8.40;;
35128;SDS011;21301;43.626;10.580;2023-06-19T06:09:01;13.70;;;8.70;;
35128;SDS011;21301;43.626;10.580;2023-06-19T06:11:27;10.63;;;8.63;;
35128;SDS011;21301;43.626;10.580;2023-06-19T06:13:52;13.95;;;8.05;;
35128;SDS011;21301;43.626;10.580;2023-06-19T06:16:18;11.52;;;7.65;;
35128;SDS011;21301;43.626;10.580;2023-06-19T06:18:44;13.63;;;9.15;;
35128;SDS011;21301;43.626;10.580;2023-06-19T06:21:11;12.93;;;8.65;;
35128;SDS011;21301;43.626;10.580;2023-06-19T06:23:38;12.55;;;8.30;;
35128;SDS011;21301;43.626;10.580;2023-06-19T06:26:05;11.00;;;7.70;;
35128;SDS011;21301;43.626;10.580;2023-06-19T06:28:31;12.85;;;7.35;;
35128;SDS011;21301;43.626;10.580;2023-06-19T06:30:57;14.70;;;8.00;;
35128;SDS011;21301;43.626;10.580;2023-06-19T06:33:23;12.68;;;7.28;;
35128;SDS011;21301;43.626;10.580;2023-06-19T06:35:49;14.45;;;7.95;;
35128;SDS011;21301;43.626;10.580;2023-06-19T06:38:16;10.25;;;7.88;;
35128;SDS011;21301;43.626;10.580;2023-06-19T06:40:42;13.38;;;7.03;;
35128;SDS011;21301;43.626;10.580;2023-06-19T06:43:08;11.43;;;7.32;;
35128;SDS011;21301;43.626;10.580;2023-06-19T06:45:34;11.50;;;7.97;;
35128;SDS011;21301;43.626;10.580;2023-06-19T06:48:03;9.90;;;7.50;;
35128;SDS011;21301;43.626;10.580;2023-06-19T06:50:29;11.57;;;6.75;;
35128;SDS011;21301;43.626;10.580;2023-06-19T06:52:57;11.73;;;7.47;;
35128;SDS011;21301;43.626;10.580;2023-06-19T06:55:23;10.55;;;5.85;;
35128;SDS011;21301;43.626;10.580;2023-06-19T06:57:49;8.70;;;6.05;;
35128;SDS011;21301;43.626;10.580;2023-06-19T07:00:15;7.70;;;5.30;;
35128;SDS011;21301;43.626;10.580;2023-06-19T07:02:43;8.40;;;5.47;;
35128;SDS011;21301;43.626;10.580;2023-06-19T07:05:11;9.98;;;6.20;;
35128;SDS011;21301;43.626;10.580;2023-06-19T07:07:37;9.10;;;6.10;;
35128;SDS011;21301;43.626;10.580;2023-06-19T07:10:03;11.35;;;6.68;;
35128;SDS011;21301;43.626;10.580;2023-06-19T07:12:29;10.23;;;6.22;;
35128;SDS011;21301;43.626;10.580;2023-06-19T07:14:55;11.30;;;6.32;;
35128;SDS011;21301;43.626;10.580;2023-06-19T07:17:21;8.15;;;5.30;;
35128;SDS011;21301;43.626;10.580;2023-06-19T07:19:48;10.45;;;6.35;;
35128;SDS011;21301;43.626;10.580;2023-06-19T07:22:14;9.82;;;5.95;;
35128;SDS011;21301;43.626;10.580;2023-06-19T07:24:40;8.73;;;5.30;;
35128;SDS011;21301;43.626;10.580;2023-06-19T07:27:06;10.23;;;5.72;;
35128;SDS011;21301;43.626;10.580;2023-06-19T07:29:32;9.25;;;5.88;;
35128;SDS011;21301;43.626;10.580;2023-06-19T07:31:58;8.13;;;5.63;;
35128;SDS011;21301;43.626;10.580;2023-06-19T07:34:26;8.95;;;5.78;;
35128;SDS011;21301;43.626;10.580;2023-06-19T07:36:51;9.05;;;5.95;;
35128;SDS011;21301;43.626;10.580;2023-06-19T07:39:17;10.15;;;5.43;;
35128;SDS011;21301;43.626;10.580;2023-06-19T07:41:44;12.10;;;5.45;;
35128;SDS011;21301;43.626;10.580;2023-06-19T07:44:10;9.55;;;5.40;;
35128;SDS011;21301;43.626;10.580;2023-06-19T07:46:36;9.65;;;5.72;;
35128;SDS011;21301;43.626;10.580;2023-06-19T07:49:02;7.55;;;5.68;;
35128;SDS011;21301;43.626;10.580;2023-06-19T07:51:28;11.48;;;6.28;;
35128;SDS011;21301;43.626;10.580;2023-06-19T07:53:54;8.93;;;5.68;;
35128;SDS011;21301;43.626;10.580;2023-06-19T07:56:19;9.70;;;6.25;;
35128;SDS011;21301;43.626;10.580;2023-06-19T07:58:46;10.80;;;5.97;;
35128;SDS011;21301;43.626;10.580;2023-06-19T08:01:12;8.50;;;5.85;;
35128;SDS011;21301;43.626;10.580;2023-06-19T08:03:38;10.13;;;5.28;;
35128;SDS011;21301;43.626;10.580;2023-06-19T08:06:04;14.80;;;6.03;;
35128;SDS011;21301;43.626;10.580;2023-06-19T08:08:30;8.35;;;5.70;;
35128;SDS011;21301;43.626;10.580;2023-06-19T08:10:55;9.82;;;6.13;;
35128;SDS011;21301;43.626;10.580;2023-06-19T08:13:21;9.15;;;6.05;;
35128;SDS011;21301;43.626;10.580;2023-06-19T08:15:47;8.02;;;5.38;;
35128;SDS011;21301;43.626;10.580;2023-06-19T08:18:13;8.63;;;6.00;;
35128;SDS011;21301;43.626;10.580;2023-06-19T08:20:38;10.52;;;6.03;;
35128;SDS011;21301;43.626;10.580;2023-06-19T08:23:04;9.18;;;6.00;;
35128;SDS011;21301;43.626;10.580;2023-06-19T08:25:30;11.38;;;5.60;;
35128;SDS011;21301;43.626;10.580;2023-06-19T08:27:56;10.43;;;6.20;;
35128;SDS011;21301;43.626;10.580;2023-06-19T08:30:21;9.40;;;5.95;;
35128;SDS011;21301;43.626;10.580;2023-06-19T08:32:47;7.90;;;5.40;;
35128;SDS011;21301;43.626;10.580;2023-06-19T08:35:13;9.10;;;5.70;;
35128;SDS011;21301;43.626;10.580;2023-06-19T08:37:40;10.25;;;5.28;;
35128;SDS011;21301;43.626;10.580;2023-06-19T08:40:06;8.80;;;4.68;;
35128;SDS011;21301;43.626;10.580;2023-06-19T08:42:34;6.90;;;5.07;;
35128;SDS011;21301;43.626;10.580;2023-06-19T08:45:01;8.38;;;5.22;;
35128;SDS011;21301;43.626;10.580;2023-06-19T08:47:31;8.55;;;4.53;;
35128;SDS011;21301;43.626;10.580;2023-06-19T08:49:57;8.45;;;4.80;;
35128;SDS011;21301;43.626;10.580;2023-06-19T08:52:23;9.55;;;4.80;;
35128;SDS011;21301;43.626;10.580;2023-06-19T08:54:49;10.05;;;5.75;;
35128;SDS011;21301;43.626;10.580;2023-06-19T08:57:15;7.88;;;4.75;;
35128;SDS011;21301;43.626;10.580;2023-06-19T08:59:47;9.40;;;4.72;;
35128;SDS011;21301;43.626;10.580;2023-06-19T09:02:15;8.10;;;4.60;;
35128;SDS011;21301;43.626;10.580;2023-06-19T09:04:41;8.27;;;5.28;;
35128;SDS011;21301;43.626;10.580;2023-06-19T09:07:08;6.90;;;4.78;;
35128;SDS011;21301;43.626;10.580;2023-06-19T09:09:46;10.50;;;4.65;;
35128;SDS011;21301;43.626;10.580;2023-06-19T09:12:12;8.57;;;5.40;;
35128;SDS011;21301;43.626;10.580;2023-06-19T09:14:42;9.88;;;4.82;;
35128;SDS011;21301;43.626;10.580;2023-06-19T09:17:19;8.57;;;5.10;;
35128;SDS011;21301;43.626;10.580;2023-06-19T09:19:49;7.97;;;5.13;;
35128;SDS011;21301;43.626;10.580;2023-06-19T09:22:16;7.00;;;4.85;;
35128;SDS011;21301;43.626;10.580;2023-06-19T09:24:43;9.02;;;4.88;;
35128;SDS011;21301;43.626;10.580;2023-06-19T09:29:42;9.43;;;4.70;;
35128;SDS011;21301;43.626;10.580;2023-06-19T09:34:42;7.85;;;4.13;;
35128;SDS011;21301;43.626;10.580;2023-06-19T09:37:07;9.05;;;4.10;;
35128;SDS011;21301;43.626;10.580;2023-06-19T09:39:34;9.57;;;4.57;;
35128;SDS011;21301;43.626;10.580;2023-06-19T09:42:02;11.75;;;4.82;;
35128;SDS011;21301;43.626;10.580;2023-06-19T09:44:31;8.27;;;4.57;;
35128;SDS011;21301;43.626;10.580;2023-06-19T09:47:01;7.20;;;4.32;;
35128;SDS011;21301;43.626;10.580;2023-06-19T09:51:59;8.18;;;5.22;;
35128;SDS011;21301;43.626;10.580;2023-06-19T09:54:25;7.93;;;4.20;;
35128;SDS011;21301;43.626;10.580;2023-06-19T09:56:55;8.70;;;5.00;;
35128;SDS011;21301;43.626;10.580;2023-06-19T09:59:28;7.80;;;4.97;;
35128;SDS011;21301;43.626;10.580;2023-06-19T10:01:57;7.15;;;4.57;;
35128;SDS011;21301;43.626;10.580;2023-06-19T10:04:23;9.23;;;4.68;;
35128;SDS011;21301;43.626;10.580;2023-06-19T10:06:49;7.43;;;4.53;;
35128;SDS011;21301;43.626;10.580;2023-06-19T10:09:16;8.68;;;5.18;;
35128;SDS011;21301;43.626;10.580;2023-06-19T10:11:47;12.18;;;4.80;;
35128;SDS011;21301;43.626;10.580;2023-06-19T10:14:20;16.35;;;4.20;;
35128;SDS011;21301;43.626;10.580;2023-06-19T10:16:46;6.97;;;4.82;;
35128;SDS011;21301;43.626;10.580;2023-06-19T10:19:16;8.10;;;3.97;;
35128;SDS011;21301;43.626;10.580;2023-06-19T10:21:46;6.38;;;4.22;;
35128;SDS011;21301;43.626;10.580;2023-06-19T10:24:15;10.77;;;4.68;;
35128;SDS011;21301;43.626;10.580;2023-06-19T10:26:43;8.27;;;4.32;;
35128;SDS011;21301;43.626;10.580;2023-06-19T10:29:20;6.57;;;4.50;;
35128;SDS011;21301;43.626;10.580;2023-06-19T10:31:47;7.63;;;4.10;;
35128;SDS011;21301;43.626;10.580;2023-06-19T10:34:12;10.07;;;4.70;;
35128;SDS011;21301;43.626;10.580;2023-06-19T10:36:38;5.88;;;3.75;;
35128;SDS011;21301;43.626;10.580;2023-06-19T10:39:04;5.95;;;3.95;;
35128;SDS011;21301;43.626;10.580;2023-06-19T10:41:31;7.47;;;3.83;;
35128;SDS011;21301;43.626;10.580;2023-06-19T10:43:58;5.95;;;4.13;;
35128;SDS011;21301;43.626;10.580;2023-06-19T10:46:33;7.95;;;4.80;;
35128;SDS011;21301;43.626;10.580;2023-06-19T10:49:03;9.85;;;4.45;;
35128;SDS011;21301;43.626;10.580;2023-06-19T10:51:30;12.27;;;3.83;;
35128;SDS011;21301;43.626;10.580;2023-06-19T10:53:59;9.77;;;4.35;;
35128;SDS011;21301;43.626;10.580;2023-06-19T10:56:25;6.75;;;3.33;;
35128;SDS011;21301;43.626;10.580;2023-06-19T10:59:01;7.93;;;3.10;;
35128;SDS011;21301;43.626;10.580;2023-06-19T11:01:52;9.27;;;3.45;;
35128;SDS011;21301;43.626;10.580;2023-06-19T11:04:18;8.20;;;3.65;;
35128;SDS011;21301;43.626;10.580;2023-06-19T11:06:44;5.80;;;2.60;;
35128;SDS011;21301;43.626;10.580;2023-06-19T11:09:13;5.20;;;3.05;;
35128;SDS011;21301;43.626;10.580;2023-06-19T11:11:43;6.40;;;3.67;;
35128;SDS011;21301;43.626;10.580;2023-06-19T11:14:11;6.22;;;3.13;;
35128;SDS011;21301;43.626;10.580;2023-06-19T11:16:38;7.93;;;3.20;;
35128;SDS011;21301;43.626;10.580;2023-06-19T11:19:15;5.35;;;3.13;;
35128;SDS011;21301;43.626;10.580;2023-06-19T11:21:45;9.35;;;3.60;;
35128;SDS011;21301;43.626;10.580;2023-06-19T11:24:14;6.57;;;3.22;;
35128;SDS011;21301;43.626;10.580;2023-06-19T11:26:41;6.10;;;3.05;;
35128;SDS011;21301;43.626;10.580;2023-06-19T11:29:24;5.80;;;3.20;;
35128;SDS011;21301;43.626;10.580;2023-06-19T11:32:03;6.35;;;2.92;;
35128;SDS011;21301;43.626;10.580;2023-06-19T11:34:40;5.00;;;2.90;;
35128;SDS011;21301;43.626;10.580;2023-06-19T11:39:38;8.48;;;4.20;;
35128;SDS011;21301;43.626;10.580;2023-06-19T11:42:05;6.50;;;3.70;;
35128;SDS011;21301;43.626;10.580;2023-06-19T11:44:34;5.28;;;3.17;;
35128;SDS011;21301;43.626;10.580;2023-06-19T11:47:00;7.22;;;3.40;;
35128;SDS011;21301;43.626;10.580;2023-06-19T11:49:26;4.30;;;2.88;;
35128;SDS011;21301;43.626;10.580;2023-06-19T11:51:53;8.23;;;3.47;;
35128;SDS011;21301;43.626;10.580;2023-06-19T11:54:19;5.38;;;2.92;;
35128;SDS011;21301;43.626;10.580;2023-06-19T11:56:45;7.90;;;3.55;;
35128;SDS011;21301;43.626;10.580;2023-06-19T11:59:14;8.25;;;3.40;;
35128;SDS011;21301;43.626;10.580;2023-06-19T12:01:40;5.93;;;3.20;;
35128;SDS011;21301;43.626;10.580;2023-06-19T12:04:06;6.15;;;2.92;;
35128;SDS011;21301;43.626;10.580;2023-06-19T12:06:32;6.70;;;3.03;;
35128;SDS011;21301;43.626;10.580;2023-06-19T12:09:01;5.63;;;2.95;;
35128;SDS011;21301;43.626;10.580;2023-06-19T12:11:30;6.65;;;3.33;;
35128;SDS011;21301;43.626;10.580;2023-06-19T12:13:56;8.57;;;3.10;;
35128;SDS011;21301;43.626;10.580;2023-06-19T12:16:23;6.68;;;3.40;;
35128;SDS011;21301;43.626;10.580;2023-06-19T12:18:49;8.25;;;3.58;;
35128;SDS011;21301;43.626;10.580;2023-06-19T12:21:15;4.65;;;2.80;;
35128;SDS011;21301;43.626;10.580;2023-06-19T12:23:41;6.55;;;3.00;;
35128;SDS011;21301;43.626;10.580;2023-06-19T12:26:08;7.20;;;3.80;;
35128;SDS011;21301;43.626;10.580;2023-06-19T12:28:34;6.60;;;3.00;;
35128;SDS011;21301;43.626;10.580;2023-06-19T12:31:00;7.75;;;3.70;;
35128;SDS011;21301;43.626;10.580;2023-06-19T12:33:28;5.68;;;3.17;;
35128;SDS011;21301;43.626;10.580;2023-06-19T12:35:58;6.70;;;3.35;;
35128;SDS011;21301;43.626;10.580;2023-06-19T12:38:24;6.03;;;3.08;;
35128;SDS011;21301;43.626;10.580;2023-06-19T12:40:50;6.50;;;3.10;;
35128;SDS011;21301;43.626;10.580;2023-06-19T12:43:17;6.35;;;3.20;;
35128;SDS011;21301;43.626;10.580;2023-06-19T12:45:43;7.72;;;3.15;;
35128;SDS011;21301;43.626;10.580;2023-06-19T12:48:10;9.30;;;3.40;;
35128;SDS011;21301;43.626;10.580;2023-06-19T12:50:36;6.43;;;3.72;;
35128;SDS011;21301;43.626;10.580;2023-06-19T12:53:02;6.18;;;3.03;;
35128;SDS011;21301;43.626;10.580;2023-06-19T12:55:28;8.13;;;3.60;;
35128;SDS011;21301;43.626;10.580;2023-06-19T12:57:54;5.45;;;3.10;;
35128;SDS011;21301;43.626;10.580;2023-06-19T13:00:20;6.43;;;3.28;;
35128;SDS011;21301;43.626;10.580;2023-06-19T13:02:47;6.20;;;3.45;;
35128;SDS011;21301;43.626;10.580;2023-06-19T13:05:13;8.00;;;2.75;;
35128;SDS011;21301;43.626;10.580;2023-06-19T13:07:39;7.68;;;3.67;;
35128;SDS011;21301;43.626;10.580;2023-06-19T13:10:05;9.25;;;3.30;;
35128;SDS011;21301;43.626;10.580;2023-06-19T13:12:32;9.73;;;2.95;;
35128;SDS011;21301;43.626;10.580;2023-06-19T13:15:00;6.88;;;2.95;;
35128;SDS011;21301;43.626;10.580;2023-06-19T13:17:26;13.88;;;3.50;;
35128;SDS011;21301;43.626;10.580;2023-06-19T13:19:52;7.90;;;3.47;;
35128;SDS011;21301;43.626;10.580;2023-06-19T13:22:18;7.30;;;3.20;;
35128;SDS011;21301;43.626;10.580;2023-06-19T13:24:44;5.70;;;3.85;;
35128;SDS011;21301;43.626;10.580;2023-06-19T13:27:13;10.60;;;3.85;;
35128;SDS011;21301;43.626;10.580;2023-06-19T13:29:39;11.70;;;3.78;;
35128;SDS011;21301;43.626;10.580;2023-06-19T13:32:05;5.93;;;3.33;;
35128;SDS011;21301;43.626;10.580;2023-06-19T13:34:32;6.38;;;3.60;;
35128;SDS011;21301;43.626;10.580;2023-06-19T13:36:58;9.50;;;3.40;;
35128;SDS011;21301;43.626;10.580;2023-06-19T13:39:27;8.70;;;3.38;;
35128;SDS011;21301;43.626;10.580;2023-06-19T13:41:53;6.18;;;2.97;;
35128;SDS011;21301;43.626;10.580;2023-06-19T13:44:20;10.85;;;3.38;;
35128;SDS011;21301;43.626;10.580;2023-06-19T13:46:47;9.45;;;3.95;;
35128;SDS011;21301;43.626;10.580;2023-06-19T13:49:14;8.40;;;3.95;;
35128;SDS011;21301;43.626;10.580;2023-06-19T13:51:40;5.68;;;2.95;;
35128;SDS011;21301;43.626;10.580;2023-06-19T13:54:07;9.80;;;3.50;;
35128;SDS011;21301;43.626;10.580;2023-06-19T13:56:33;7.18;;;3.45;;
35128;SDS011;21301;43.626;10.580;2023-06-19T13:59:00;6.43;;;3.33;;
35128;SDS011;21301;43.626;10.580;2023-06-19T14:01:26;5.55;;;3.40;;
35128;SDS011;21301;43.626;10.580;2023-06-19T14:03:52;7.88;;;3.63;;
35128;SDS011;21301;43.626;10.580;2023-06-19T14:06:18;6.53;;;3.10;;
35128;SDS011;21301;43.626;10.580;2023-06-19T14:08:44;7.60;;;3.67;;
35128;SDS011;21301;43.626;10.580;2023-06-19T14:11:11;6.85;;;3.22;;
35128;SDS011;21301;43.626;10.580;2023-06-19T14:13:37;10.88;;;4.05;;
35128;SDS011;21301;43.626;10.580;2023-06-19T14:16:03;6.68;;;3.47;;
35128;SDS011;21301;43.626;10.580;2023-06-19T14:18:29;6.18;;;3.03;;
35128;SDS011;21301;43.626;10.580;2023-06-19T14:20:55;5.18;;;3.13;;
35128;SDS011;21301;43.626;10.580;2023-06-19T14:23:21;8.25;;;3.83;;
35128;SDS011;21301;43.626;10.580;2023-06-19T14:25:46;6.25;;;3.30;;
35128;SDS011;21301;43.626;10.580;2023-06-19T14:28:12;6.38;;;2.95;;
35128;SDS011;21301;43.626;10.580;2023-06-19T14:30:39;5.82;;;3.08;;
35128;SDS011;21301;43.626;10.580;2023-06-19T14:33:05;5.15;;;3.08;;
35128;SDS011;21301;43.626;10.580;2023-06-19T14:35:35;6.13;;;3.60;;
35128;SDS011;21301;43.626;10.580;2023-06-19T14:38:01;7.82;;;3.83;;
35128;SDS011;21301;43.626;10.580;2023-06-19T14:40:27;7.22;;;4.13;;